Tiempo atmosférico en la estación meteorológica de Córdoba Aeropuerto, Córdoba (90 m.)



Fecha
DESCASC
Temp. máxima en grados centígrados (hora)
DESCASC
Temp. mínima en grados centígrados (hora)
DESCASC
Temp. media en grados centígrados
DESCASC
Racha de viento máxima en m/sg (hora)
DESCASC
Velocidad máxima media en intervalos de 10 minutos(hora)
DESCASC
Precipitaciones diarias en mm
DESCASC
Precipitaciones de 00:00 a 06:00 en mm
DESCASC
Precipitaciones de 06:00 a 12:00 en mm
DESCASC
Precipitaciones de 12:00 a 18:00 en mm
DESCASC
Precipitaciones de 18:00 a 24:00 en mm
DESCASC
22-01-2020 14.8 (15:50) 7.8 (03:50) 11.3 6.67 (01:40) 4.72 (01:40) 6.7 3.5 3.2 0 0
21-01-2020 13.4 (15:40) 5.3 (08:50) 9.3 11.67 (03:50) 8.33 (04:00) 0 0 0 0 0
20-01-2020 12.6 (16:30) 6.5 (06:30) 9.6 16.94 (11:50) 11.11 (15:10) 0 0 0 0 0
19-01-2020 14.1 (15:00) 7.4 (00:00) 10.8 15 (18:50) 8.89 (19:00) 0 0 0 0 0
18-01-2020 11.3 (14:40) 7.3 (00:00) 9.3 -- (--) -- (--) -- 0 -- 4.3 1.7
17-01-2020 18.5 (16:40) 6.4 (00:00) 12.5 3.06 (03:10) 2.22 (07:50) 0 0 0 0 0
16-01-2020 18 (15:40) 4.9 (00:00) 11.5 7.78 (11:40) 5.56 (11:40) 0 0 0 0 0
15-01-2020 16.8 (16:30) 3 (00:00) 9.9 6.11 (10:10) 4.17 (10:40) 0 0 0 0 0
14-01-2020 14.9 (17:00) 1.2 (00:00) 8 -- (--) -- (--) 0 0 0 0 0
13-01-2020 15.2 (17:10) 0.3 (00:00) 7.7 6.11 (12:10) 4.17 (12:10) 0 0 0 0 0
12-01-2020 16.5 (17:30) 0 (00:00) 8.3 6.11 (11:30) 4.72 (12:00) 0 0 0 0 0
11-01-2020 16.4 (16:10) 1.8 (00:00) 9.1 7.78 (13:10) 5.56 (13:10) 0 0 0 0 0
10-01-2020 16.2 (15:30) 4.4 (00:00) 10.3 7.78 (18:00) 5.28 (17:50) 0 0 0 0 0
09-01-2020 15.7 (16:00) 1.2 (00:00) 8.4 -- (--) -- (--) 0 0 0 0 0
08-01-2020 18.8 (17:20) 1.4 (00:00) 10.1 5.83 (12:00) 3.89 (11:40) 0 0 0 0 0
07-01-2020 16.8 (16:40) 2.2 (00:00) 9.5 -- (--) -- (--) 0 0 0 0 0
06-01-2020 16.3 (16:50) 0.7 (00:00) 8.5 -- (--) -- (--) 0 0 0 0 0
05-01-2020 15.3 (16:10) 3.2 (00:00) 9.3 6.67 (13:20) 4.44 (13:20) 0 0 0 0 0
04-01-2020 14.1 (16:00) 4.4 (00:00) 9.3 -- (--) -- (--) 0 0 0 0 0
03-01-2020 14.1 (15:40) 2.3 (00:00) 8.2 -- (--) -- (--) 0 0 0 0 0
02-01-2020 16.2 (16:00) 2.4 (00:00) 9.3 -- (--) -- (--) 0 0 0 0 0
01-01-2020 17.5 (17:00) 2.4 (00:00) 10 -- (--) -- (--) 0 0 0 0 0
31-12-2019 16.2 (17:00) 3.5 (00:00) 9.9 -- (--) -- (--) 0 0 0 0 0
30-12-2019 17.2 (16:30) 2.7 (00:00) 10 -- (--) -- (--) 0 0 0 0 0
29-12-2019 16.8 (16:00) 3.9 (00:00) 10.3 5 (12:30) 3.61 (14:40) 0 0 0 0 0
28-12-2019 21.2 (17:20) 5.4 (00:00) 13.3 5.83 (11:20) 3.89 (13:40) 0 0 0 0 0
27-12-2019 20.1 (16:10) 7.3 (00:00) 13.7 5.83 (14:50) 3.89 (13:30) 0 0 0 0 0
26-12-2019 18.9 (15:40) 6.8 (00:00) 12.8 6.67 (11:10) 4.17 (11:10) 0 0 0 0 0
25-12-2019 20 (16:50) 6.8 (00:00) 13.4 6.67 (11:50) 5 (11:50) 0 0 0 0 0

Gráficas

Temp. máximas Temp. mínimas Temp. medias Precipitaciones Rachas de viento máximas Velocidades máximas media en intervalos de 10 minutos

Datos horarios

Fecha y hora oficial Temperatura (ºC) Velocidad del viento (km/h) Dirección del viento Racha (km/h) Dirección de racha Precipitación (mm) Presión (hPa) Tendencia (hPa) Humedad (%)
2020-01-23 23:00:00 9.9 4 Este 9 Este 1.2 1008.3 0.9 94
2020-01-23 22:00:00 10.1 4 Nordeste 9 Nordeste 1.6 1008.1 1.8 92
2020-01-23 21:00:00 10.5 6 Norte 11 Sudoeste 1.3 1007.7 1.7 90
2020-01-23 20:00:00 11 8 Sudoeste 13 Nordeste 0 1007.4 1.3 86
2020-01-23 19:00:00 11.4 8 Este 17 Este 0 1006.3 0.3 83
2020-01-23 18:00:00 11.8 12 Nordeste 26 Nordeste 0 1006 -0.1 83
2020-01-23 17:00:00 12 16 Este 28 Nordeste 0 1006.1 -0.8 81
2020-01-23 16:00:00 11.9 19 Nordeste 28 Este 0 1006 -1.4 80
2020-01-23 15:00:00 11.8 18 Nordeste 24 Nordeste 0.3 1006.1 -1.6 82
2020-01-23 14:00:00 11.4 9 Nordeste 18 Nordeste 0.3 1006.9 -0.5 81
2020-01-23 13:00:00 11.1 15 Este 24 Nordeste 0.2 1007.4 0.7 81
2020-01-23 12:00:00 10.2 13 Este 24 Nordeste 0.4 1007.7 1.4 86
2020-01-23 11:00:00 10 11 Este 17 Este 0 1007.4 1.3 86
2020-01-23 10:00:00 9.1 10 Este 15 Este 0 1006.7 0.6 89
2020-01-23 09:00:00 8.9 14 Nordeste 24 Este 0 1006.3 0.6 87
2020-01-23 08:00:00 8.8 13 Nordeste 18 Nordeste 0.2 1006.1 0.6 89
2020-01-23 07:00:00 8.7 6 Este 21 Este 0.4 1006.1 0.3 90
2020-01-23 06:00:00 8.8 8 Este 22 Este 0.1 1005.7 -0.4 89
2020-01-23 05:00:00 8.7 14 Este 18 Este 0 1005.5 -0.5 88
2020-01-23 04:00:00 8.6 12 Este 15 Este 0.2 1005.8 -0.5 88
2020-01-23 03:00:00 9 10 Este 17 Este 0 1006.1 -0.1 86
2020-01-23 02:00:00 9.1 5 Este 11 Este 0 1006 0.2 89
2020-01-23 01:00:00 9.5 3 Este -- -- 0.3 1006.3 0.7 88
2020-01-23 00:00:00 10 6 Este 11 Nordeste 0 1006.2 0.6 85
2020-01-22 23:00:00 10.3 3 Sudeste 9 Nordeste 0 1005.8 0.8 82
2020-01-22 22:00:00 10.7 5 Nordeste 8 Este 0 1005.6 1 79
2020-01-22 21:00:00 10.8 3 Nordeste 8 Nordeste 0 1005.6 1.5 76
2020-01-22 20:00:00 10.5 0 Calma 9 Sudoeste 0 1005 1 84
2020-01-22 19:00:00 12 5 Sur 13 Sudeste 0 1004.6 0.7 73
2020-01-22 18:00:00 13.5 8 Este 15 Sudeste 0 1004.1 -0.3 61
2020-01-22 17:00:00 14.4 9 Este 15 Este 0 1004 -0.8 55
2020-01-22 16:00:00 14.7 9 Este 17 Este 0 1003.9 -2 55
2020-01-22 15:00:00 14.1 12 Este 21 Este 0 1004.4 -1.9 58
2020-01-22 14:00:00 12.9 14 Este 22 Nordeste 0 1004.8 -1.4 69
2020-01-22 13:00:00 11.3 12 Este 18 Nordeste 0 1005.9 0.1 75
2020-01-22 12:00:00 9.9 9 Este 17 Este 0 1006.3 0.9 84
2020-01-22 11:00:00 8.9 12 Este 18 Este 0 1006.2 1.4 90
2020-01-22 10:00:00 8.3 10 Este 21 Nordeste 0 1005.8 1.5 94
2020-01-22 09:00:00 8 9 Este 17 Este 0.5 1005.4 1.1 95
2020-01-22 08:00:00 7.9 12 Nordeste 17 Este 1 1004.8 0.4 94
2020-01-22 07:00:00 7.9 12 Nordeste 18 Nordeste 1.7 1004.3 -0.1 94
2020-01-22 06:00:00 7.9 9 Este 17 Nordeste 1.3 1004.3 -0.1 94
2020-01-22 05:00:00 7.8 9 Nordeste 15 Nordeste 0.9 1004.4 0.1 94
2020-01-22 04:00:00 7.8 12 Nordeste 22 Nordeste 0.9 1004.4 0.1 93
2020-01-22 03:00:00 8.1 17 Este 24 Este 0.3 1004.4 0.4 91
2020-01-22 02:00:00 8.3 13 Nordeste 24 Nordeste 0.1 1004.3 0.7 87
2020-01-22 01:00:00 8.5 14 Este 22 Nordeste 0 1004.3 1.1 83
2020-01-22 00:00:00 8.5 12 Este 17 Este 0 1004 1.3 78
2020-01-21 23:00:00 8.5 10 Este 15 Este 0 1003.6 1 78
2020-01-21 22:00:00 8 9 Este 15 Nordeste 0 1003.2 0.7 81
2020-01-21 21:00:00 9.4 10 Nordeste 21 Nordeste 0 1002.7 1 71
2020-01-21 20:00:00 10.4 12 Nordeste 24 Nordeste 0 1002.6 1.5 67
2020-01-21 19:00:00 11 10 Este 15 Este 0 1002.5 1.1 64
2020-01-21 18:00:00 11.5 12 Este 18 Nordeste 0 1001.7 0.4 59
2020-01-21 17:00:00 11.9 10 Este 26 Este 0 1001.1 -1.2 60
2020-01-21 16:00:00 12.4 16 Este 28 Nordeste 0 1001.4 -1.6 55
2020-01-21 15:00:00 12.6 23 Este 35 Este 0 1001.3 -2.1 56
2020-01-21 14:00:00 12.1 21 Este 41 Nordeste 0 1002.3 -1.5 56
2020-01-21 13:00:00 11.4 22 Este 39 Nordeste 0 1003 -0.6 58
2020-01-21 12:00:00 10.6 21 Nordeste 41 Nordeste 0 1003.4 -0.5 60
2020-01-21 11:00:00 9.9 21 Este 28 Nordeste 0 1003.8 0.1 65
2020-01-21 10:00:00 6.3 5 Oeste 11 Noroeste 0 1003.6 -0.1 83
2020-01-21 09:00:00 5.3 4 Este 13 Este 0 1003.9 0.3 81
2020-01-21 08:00:00 6 10 Este 21 Este 0 1003.7 -0.3 77
2020-01-21 07:00:00 6.7 12 Este 17 Este 0 1003.7 -0.3 74
2020-01-21 06:00:00 7.3 8 Sudeste 24 Nordeste 0 1003.6 -0.9 71
2020-01-21 05:00:00 8.8 18 Nordeste 41 Nordeste 0 1004 -1.1 64
2020-01-21 04:00:00 9.5 30 Nordeste 42 Nordeste 0 1004 -1.6 61
2020-01-21 03:00:00 10 19 Nordeste 35 Nordeste 0 1004.5 -1.4 59
2020-01-21 02:00:00 9.7 21 Nordeste 30 Nordeste 0 1005.1 -0.6 61
2020-01-21 01:00:00 9.9 11 Nordeste 28 Nordeste 0 1005.6 0.1 61
2020-01-21 00:00:00 10.8 24 Nordeste 41 Nordeste 0 1005.9 0.7 56
2020-01-20 23:00:00 10.9 21 Nordeste 33 Nordeste 0 1005.7 0.8 57
2020-01-20 22:00:00 10.8 17 Nordeste 39 Nordeste 0 1005.5 0.9 56
2020-01-20 21:00:00 10.9 26 Nordeste 39 Nordeste 0 1005.2 0.7 55
2020-01-20 20:00:00 11 29 Nordeste 46 Nordeste 0 1004.9 0.9 55
2020-01-20 19:00:00 11.2 29 Nordeste 46 Nordeste 0 1004.6 1 52
2020-01-20 18:00:00 11.9 26 Nordeste 45 Nordeste 0 1004.5 0.8 49
2020-01-20 17:00:00 12.4 27 Nordeste 54 Nordeste 0 1004 -0.6 46
2020-01-20 16:00:00 11.8 37 Nordeste 55 Nordeste 0 1003.6 -2.1 46
2020-01-20 15:00:00 11.6 37 Nordeste 52 Nordeste 0 1003.7 -2.5 47
2020-01-20 14:00:00 11.1 35 Nordeste 58 Nordeste 0 1004.6 -2 48
2020-01-20 13:00:00 9.7 33 Nordeste 55 Este 0 1005.7 -1 48
2020-01-20 12:00:00 10.1 39 Nordeste 61 Nordeste 0 1006.2 -1 46
2020-01-20 11:00:00 8.7 31 Este 48 Este 0 1006.6 -0.8 49
2020-01-20 10:00:00 7.2 21 Nordeste 35 Nordeste 0 1006.7 -0.4 55
2020-01-20 09:00:00 6.9 19 Nordeste 33 Nordeste 0 1007.2 -0.4 56
2020-01-20 08:00:00 7.2 24 Nordeste 41 Nordeste 0 1007.4 -0.4 54
2020-01-20 07:00:00 7.1 20 Nordeste 35 Este 0 1007.1 -1.2 51
2020-01-20 06:00:00 7.2 12 Este 30 Nordeste 0 1007.6 -0.9 46
2020-01-20 05:00:00 7.5 15 Nordeste 28 Nordeste 0 1007.8 -1.3 45
2020-01-20 04:00:00 8 21 Nordeste 33 Nordeste 0 1008.3 -1.4 45
2020-01-20 03:00:00 7.6 23 Nordeste 33 Nordeste 0 1008.5 -0.9 52
2020-01-20 02:00:00 7.1 19 Nordeste 26 Nordeste 0 1009.1 0.5 62
2020-01-20 01:00:00 8.2 19 Nordeste 33 Norte 0 1009.7 0.9 61
2020-01-20 00:00:00 8.3 12 Nordeste 32 Nordeste 0 1009.4 0.8 62
2020-01-19 23:00:00 8.4 22 Nordeste 39 Nordeste 0 1008.6 0 63
2020-01-19 22:00:00 8.8 24 Nordeste 37 Nordeste 0 1008.8 0.7 63
2020-01-19 21:00:00 9.3 20 Nordeste 37 Norte 0 1008.6 1.3 65
2020-01-19 20:00:00 9.8 23 Nordeste 48 Nordeste 0 1008.6 1.2 60
2020-01-19 19:00:00 11 32 Nordeste 54 Nordeste 0 1008.1 0.6 52
2020-01-19 18:00:00 12.3 21 Nordeste 37 Nordeste 0 1007.3 -0.2 49
2020-01-19 17:00:00 12.8 22 Norte 37 Norte 0 1007.4 -1.1 54
2020-01-19 16:00:00 13.2 27 Norte 46 Nordeste 0 1007.5 -1.6 57
2020-01-19 15:00:00 14 22 Norte 39 Norte 0 1007.5 -2.4 53
2020-01-19 14:00:00 12.5 6 Este 13 Este 0 1008.5 -1.5 65
2020-01-19 13:00:00 13 8 Nordeste 21 Nordeste 0 1009.1 -0.7 62
2020-01-19 12:00:00 13.2 10 Nordeste 26 Nordeste 0 1009.9 0.1 63
2020-01-19 11:00:00 12.1 9 Noroeste 15 Noroeste 0 1010 0.3 70
2020-01-19 10:00:00 9.4 7 Oeste 17 Sudoeste 0 1009.8 -0.1 85
2020-01-19 09:00:00 7.7 10 Sur 15 Sudoeste 0 1009.8 -0.1 92
2020-01-19 08:00:00 7.7 2 Este 9 Oeste 0 1009.7 -0.5 92
2020-01-19 07:00:00 7.6 7 Oeste 13 Oeste 0 1009.9 -0.9 90
2020-01-19 06:00:00 8.4 5 Noroeste 18 Sur 0 1009.9 -1.8 86
2020-01-19 05:00:00 10 12 Sudoeste 26 Oeste 0 1010.2 -1.6 82
2020-01-19 04:00:00 9.7 12 Oeste 24 Oeste 0 1010.8 -2.2 97
2020-01-19 03:00:00 10.5 13 Oeste 21 Oeste 0 1011.7 -1.4 97
2020-01-19 02:00:00 10.1 14 Oeste 18 Oeste 0 1011.8 -1.7 97
2020-01-19 01:00:00 11.3 12 Sudoeste 18 Oeste 0 1013 -0.3 97
2020-01-19 00:00:00 11.1 9 Oeste 18 Sudoeste 0 1013.1 -0.7 97
2020-01-18 23:00:00 11.1 8 Oeste 11 Oeste 0 1013.5 -1.4 97
2020-01-18 22:00:00 11 5 Oeste 9 Sudoeste 0 1013.3 -1.7 96
2020-01-18 21:00:00 10.9 4 Noroeste 8 Noroeste 0 1013.8 -1.7 96
2020-01-18 20:00:00 11 4 Oeste 8 Sudoeste 0.3 1014.9 -1.4 96
2020-01-18 19:00:00 10.9 0 Calma -- -- 1.4 1015 -1.9 96
2020-01-18 18:00:00 10.9 5 Este 13 Este 2 1015.5 -1.9 95
2020-01-18 17:00:00 11 9 Nordeste 13 Nordeste 1.7 1016.3 -2.1 95
2020-01-18 16:00:00 11 10 Nordeste 15 Nordeste 0.5 1016.9 -2.8 94
2020-01-18 15:00:00 11.2 12 Este 17 Este 0 1017.4 -3.7 91
2020-01-18 14:00:00 11 11 Nordeste 15 Nordeste 0.1 1018.4 -3 90
2020-01-18 13:00:00 10.8 10 Este 15 Este 0 1019.7 -1.5 89
2020-01-18 12:00:00 10.2 10 Este 17 Este 0.1 1021.1 0.2 91
2020-01-18 11:00:00 9.5 7 Este 15 Nordeste 0.9 1021.4 0.8 94
2020-01-18 10:00:00 8.8 6 Este 11 Este 1.6 1021.2 1.1 94
2020-01-18 09:00:00 8.5 4 Este 9 Este 0.7 1020.9 1.2 93
2020-01-18 08:00:00 8.2 0 Calma 8 Noroeste 0 1020.6 0.3 93
2020-01-18 07:00:00 8 3 Sudoeste -- -- -- 1020.1 -0.6 93
2020-01-18 06:00:00 8 5 Sudoeste 9 Sudoeste 0 1019.7 -1.1 93
2020-01-18 05:00:00 7.7 2 Noroeste 5 Noroeste 0 1020.3 -0.8 93
2020-01-18 04:00:00 7.5 0 Calma 4 Noroeste 0 1020.7 -0.8 93
2020-01-18 03:00:00 7.5 0 Calma -- -- 0 1020.8 -0.8 93
2020-01-18 02:00:00 7.6 0 Calma 8 Norte 0 1021.1 -0.6 93
2020-01-18 01:00:00 7.6 5 Sudeste -- -- 0 1021.5 -0.4 91
2020-01-18 00:00:00 8.5 5 Sudoeste 5 Sur 0 1021.6 -0.3 91
2020-01-17 23:00:00 9.2 0 Calma 5 Nordeste 0 1021.7 0.2 90
2020-01-17 22:00:00 9.7 3 Nordeste 8 Nordeste 0 1021.9 1.1 88
2020-01-17 21:00:00 10.5 0 Calma 9 Sudoeste 0 1021.9 1.5 85
2020-01-17 20:00:00 12 3 Sur 5 Este 0 1021.5 1.3 80
2020-01-17 19:00:00 14.5 3 Oeste 8 Oeste 0 1020.8 0.7 72
2020-01-17 18:00:00 17.2 5 Oeste 9 Oeste 0 1020.4 -0.5 61
2020-01-17 17:00:00 17.9 0 Calma 9 Sur 0 1020.2 -1.2 57
2020-01-17 16:00:00 17.7 3 Oeste 9 Sur 0 1020.1 -2.5 59
2020-01-17 15:00:00 17.2 5 Este 9 Este 0 1020.9 -2.3 61
2020-01-17 14:00:00 16.3 4 Este 9 Este 0 1021.4 -1.7 63
2020-01-17 13:00:00 15.2 3 Este 9 Nordeste 0 1022.6 0.1 60
2020-01-17 12:00:00 12.9 5 Este 11 Este 0 1023.2 1.6 64
2020-01-17 11:00:00 10.5 8 Este 11 Sudeste 0 1023.1 2.1 74
2020-01-17 10:00:00 9.3 5 Este 11 Nordeste 0 1022.5 2 78
2020-01-17 09:00:00 8.6 4 Este 11 Este 0 1021.6 1.5 80
2020-01-17 08:00:00 8.3 8 Este 11 Este 0 1021 1.2 81
2020-01-17 07:00:00 7.9 4 Este 11 Este 0 1020.5 1 82
2020-01-17 06:00:00 7.7 7 Este 11 Nordeste 0 1020.1 0.5 82
2020-01-17 05:00:00 6.9 5 Este 9 Este 0 1019.8 0.3 86
2020-01-17 04:00:00 7.4 5 Este 11 Este 0 1019.5 -0.3 84
2020-01-17 03:00:00 7.5 7 Este 9 Este 0 1019.6 0 85
2020-01-17 02:00:00 7.2 4 Nordeste 5 Nordeste 0 1019.5 0.5 88
2020-01-17 01:00:00 7.2 0 Calma 8 Nordeste 0 1019.8 1.5 84
2020-01-17 00:00:00 6.6 3 Este 9 Sudoeste 0 1019.6 1.8 83
2020-01-16 23:00:00 7.6 6 Este 9 Este 0 1019 1.6 81
2020-01-16 22:00:00 7.5 0 Calma 8 Sur 0 1018.3 1.6 81
2020-01-16 21:00:00 8.4 5 Sudoeste 8 Sudoeste 0 1017.8 1.5 76
2020-01-16 20:00:00 10 3 Oeste 5 Oeste 0 1017.4 1.2 71
2020-01-16 19:00:00 12.9 3 Sur 8 Sur 0 1016.7 0.4 59
2020-01-16 18:00:00 16.8 6 Oeste 13 Oeste 0 1016.3 -0.3 40
2020-01-16 17:00:00 17.7 8 Oeste 13 Oeste 0 1016.2 -1 35
2020-01-16 16:00:00 17.7 8 Oeste 13 Oeste 0 1016.3 -1.8 38
2020-01-16 15:00:00 17.4 3 Oeste 15 Este 0 1016.6 -2.3 40
2020-01-16 14:00:00 14.9 11 Este 21 Este 0 1017.2 -1.8 46
2020-01-16 13:00:00 13.4 12 Este 22 Este 0 1018.1 -0.4 55
2020-01-16 12:00:00 11.8 16 Este 28 Este 0 1018.9 0.8 60
2020-01-16 11:00:00 9.5 14 Este 21 Este 0 1019 1.1 70
2020-01-16 10:00:00 7.4 13 Este 21 Este 0 1018.5 1.1 77
2020-01-16 09:00:00 5.3 12 Este 18 Este 0 1018.1 0.8 85
2020-01-16 08:00:00 5.4 13 Este 21 Este 0 1017.9 0.6 85
2020-01-16 07:00:00 5.8 13 Este 17 Este 0 1017.4 -0.1 86
2020-01-16 06:00:00 6.1 13 Este 17 Este 0 1017.3 -0.3 86
2020-01-16 05:00:00 6.3 10 Este 17 Este 0 1017.3 -0.2 87
2020-01-16 04:00:00 7.1 6 Este 13 Este 0 1017.5 -0.2 88
2020-01-16 03:00:00 8 8 Este 13 Este 0 1017.6 -0.2 86
2020-01-16 02:00:00 8.9 7 Este 13 Este 0 1017.5 -0.1 86
2020-01-16 01:00:00 8.9 9 Este 13 Este 0 1017.7 0.3 88
2020-01-16 00:00:00 9 10 Este 17 Este 0 1017.8 0.7 88
2020-01-15 23:00:00 8.6 8 Este 11 Este 0 1017.6 0.5 89
2020-01-15 22:00:00 9 5 Este 13 Este 0 1017.4 0.8 88
2020-01-15 21:00:00 9.5 7 Este 9 Este 0 1017.1 0.9 87
2020-01-15 20:00:00 10.4 5 Nordeste 11 Este 0 1017.1 1.1 84
2020-01-15 19:00:00 12.6 6 Nordeste 9 Nordeste 0 1016.6 0.7 75
2020-01-15 18:00:00 15 5 Norte 8 Nordeste 0 1016.2 0.3 65
2020-01-15 17:00:00 16.3 2 Sudoeste 9 Noroeste 0 1016 -0.6 60
2020-01-15 16:00:00 15.8 4 Oeste 8 Noroeste 0 1015.9 -1.2 61
2020-01-15 15:00:00 14.8 5 Este 11 Este 0 1015.9 -1.9 54
2020-01-15 14:00:00 13.1 9 Este 17 Este 0 1016.6 -0.8 57
2020-01-15 13:00:00 11.7 11 Este 21 Este 0 1017.1 0.6 63
2020-01-15 12:00:00 10 13 Este 21 Este 0 1017.8 1.8 69
2020-01-15 11:00:00 8 15 Este 22 Este 0 1017.4 1.8 76
2020-01-15 10:00:00 5.8 12 Este 17 Este 0 1016.5 1.6 85
2020-01-15 09:00:00 3.2 10 Este 15 Este 0 1016 1.5 92
2020-01-15 08:00:00 3.6 12 Este 21 Este 0 1015.6 1.1 92
2020-01-15 07:00:00 3.6 12 Este 17 Este 0 1014.9 0.2 93
2020-01-15 06:00:00 3.5 9 Este 11 Este 0 1014.5 -0.1 93
2020-01-15 05:00:00 3.5 6 Este 11 Este 0 1014.5 -0.2 92
2020-01-15 04:00:00 4.1 7 Este 13 Este 0 1014.7 -0.2 92
2020-01-15 03:00:00 4.1 6 Este 11 Este 0 1014.6 -0.1 91
2020-01-15 02:00:00 4.8 6 Este 9 Este 0 1014.7 0.1 90
2020-01-15 01:00:00 5.6 5 Este 13 Este 0 1014.9 0.7 91
2020-01-15 00:00:00 5.3 5 Este 5 Este 0 1014.7 0.6 91
2020-01-14 23:00:00 5.8 0 Calma 5 Sur 0 1014.6 0.7 91
2020-01-14 22:00:00 6.6 0 Calma 4 Sudeste 0 1014.2 0.7 88
2020-01-14 21:00:00 7.8 -- -- -- -- 0 1014.1 0.9 86
2020-01-14 20:00:00 9 2 Este 5 Sur 0 1013.9 1.1 78
2020-01-14 19:00:00 11.1 0 Calma 9 Oeste 0 1013.5 0.9 67
2020-01-14 18:00:00 13.2 6 Noroeste 9 Oeste 0 1013.2 0.1 59
2020-01-14 17:00:00 14.8 3 Oeste 8 Oeste 0 1012.8 -1.1 51
2020-01-14 16:00:00 14.4 5 Este 9 Este 0 1012.6 -2.2 54
2020-01-14 15:00:00 14.1 3 Sudoeste 13 Este 0 1013.1 -2.3 55
2020-01-14 14:00:00 12.4 4 Este 15 Este 0 1013.9 -1.4 56
2020-01-14 13:00:00 10.5 10 Este 18 Este 0 1014.8 0.1 63
2020-01-14 12:00:00 9.2 12 Este 18 Este 0 1015.4 1 70
2020-01-14 11:00:00 6.1 14 Este 21 Este 0 1015.3 1 81
2020-01-14 10:00:00 5 15 Este 22 Este 0 1014.7 0.7 85
2020-01-14 09:00:00 4.1 7 Este 15 Este 0 1014.4 0.8 90
2020-01-14 08:00:00 3.4 10 Este 15 Este 0 1014.3 0.5 94
2020-01-14 07:00:00 2.8 6 Este 9 Este 0 1014 -0.1 94
2020-01-14 06:00:00 1.7 4 Este 8 Este 0 1013.6 -0.6 94
2020-01-14 05:00:00 1.6 3 Este -- -- 0 1013.8 -0.6 94
2020-01-14 04:00:00 1.8 4 Nordeste 5 Nordeste 0 1014.1 -0.6 94
2020-01-14 03:00:00 2.2 4 Este 8 Este 0 1014.2 -0.8 94
2020-01-14 02:00:00 2 3 Este 5 Este 0 1014.4 -0.3 93
2020-01-14 01:00:00 2.5 3 Este 5 Sudoeste 0 1014.7 0.1 93
2020-01-14 00:00:00 3.5 0 Calma 4 Noroeste 0 1015 0.3 93
2020-01-13 23:00:00 3.9 4 Sudeste 5 Sudeste 0 1014.7 0 90
2020-01-13 22:00:00 5.1 0 Calma 4 Sudeste 0 1014.6 0 88
2020-01-13 21:00:00 6.3 0 Calma 4 Oeste 0 1014.7 0.2 85
2020-01-13 20:00:00 8.3 0 Calma 5 Oeste 0 1014.7 0.3 79
2020-01-13 19:00:00 10.2 5 Sur 5 Sur 0 1014.6 0.1 72
2020-01-13 18:00:00 13.5 5 Oeste 11 Oeste 0 1014.5 -0.5 57
2020-01-13 17:00:00 15.1 3 Sudoeste 5 Sudoeste 0 1014.4 -1.8 49
2020-01-13 16:00:00 14.1 3 Sudeste 8 Sur 0 1014.5 -2.8 52
2020-01-13 15:00:00 13.3 3 Este 11 Este 0 1015 -3.4 56
2020-01-13 14:00:00 12.1 5 Este 17 Este 0 1016.2 -2.1 55
2020-01-13 13:00:00 10.6 12 Este 22 Este 0 1017.3 -0.6 59
2020-01-13 12:00:00 8.9 14 Este 21 Este 0 1018.4 0.7 67
2020-01-13 11:00:00 7.1 11 Este 15 Este 0 1018.3 0.9 76
2020-01-13 10:00:00 3.9 6 Este 13 Este 0 1017.9 0.6 91
2020-01-13 09:00:00 1.1 2 Sudeste 11 Este 0 1017.7 0.6 95
2020-01-13 08:00:00 1.1 8 Este 11 Este 0 1017.4 0 95
2020-01-13 07:00:00 1.2 5 Este 8 Este 0 1017.3 -0.5 95
2020-01-13 06:00:00 0.7 3 Este 8 Este 0 1017.1 -0.9 94
2020-01-13 05:00:00 0.9 3 Sudeste -- -- 0 1017.4 -0.7 94
2020-01-13 04:00:00 0.8 2 Sudeste 5 Sudeste 0 1017.8 -0.9 93
2020-01-13 03:00:00 1 4 Nordeste 5 Norte 0 1018 -1.1 93
2020-01-13 02:00:00 1.6 0 Calma 4 Sudoeste 0 1018.1 -1 92
2020-01-13 01:00:00 2.4 0 Calma 4 Oeste 0 1018.7 -0.2 91
2020-01-13 00:00:00 3.2 0 Calma 5 Sur 0 1019.1 0.4 91
2020-01-12 23:00:00 3.9 0 Calma 2 Noroeste 0 1019.1 0.5 89
2020-01-12 22:00:00 5.1 0 Calma 4 Oeste 0 1018.9 0.8 86
2020-01-12 21:00:00 6.4 0 Calma 5 Sudoeste 0 1018.7 0.9 84
2020-01-12 20:00:00 8.2 2 Nordeste 5 Este 0 1018.6 0.9 74
2020-01-12 19:00:00 11.4 0 Calma 8 Noroeste 0 1018.1 0.1 61
2020-01-12 18:00:00 16.1 4 Sudoeste 5 Sudoeste 0 1017.8 -0.8 45
2020-01-12 17:00:00 15.9 5 Este 11 Este 0 1017.7 -1.8 41
2020-01-12 16:00:00 15.5 5 Nordeste 11 Nordeste 0 1018 -2.9 45
2020-01-12 15:00:00 14.7 5 Este 15 Este 0 1018.6 -3.4 47
2020-01-12 14:00:00 12.7 11 Este 22 Este 0 1019.5 -2.6 54
2020-01-12 13:00:00 11.4 13 Este 22 Este 0 1020.9 -0.9 59
2020-01-12 12:00:00 9.2 17 Este 22 Este 0 1022 0.5 68
2020-01-12 11:00:00 6.5 14 Este 18 Este 0 1022.1 0.9 80
2020-01-12 10:00:00 3.8 9 Este 13 Este 0 1021.8 1 91
2020-01-12 09:00:00 1 3 Este 5 Este 0 1021.5 0.8 94
2020-01-12 08:00:00 0.3 5 Este 5 Este 0 1021.2 0.3 94
2020-01-12 07:00:00 0.1 0 Calma 4 Este 0 1020.8 -0.2 94
2020-01-12 06:00:00 0.6 2 Sudeste -- -- 0 1020.7 0 93
2020-01-12 05:00:00 1 0 Calma 4 Oeste 0 1020.9 0.4 93
2020-01-12 04:00:00 1.5 0 Calma 5 Sudeste 0 1021 0.3 92
2020-01-12 03:00:00 2 3 Oeste -- -- 0 1020.7 0.1 92
2020-01-12 02:00:00 2.6 2 Sudoeste 4 Sudoeste 0 1020.5 0.3 92
2020-01-12 01:00:00 2.9 0 Calma 5 Sur 0 1020.7 0.7 90
2020-01-12 00:00:00 3.8 5 Sudoeste 5 Oeste 0 1020.6 1 89
2020-01-11 23:00:00 4.4 0 Calma 5 Sudoeste 0 1020.2 0.9 87
2020-01-11 22:00:00 5.5 0 Calma 4 Noroeste 0 1020 1.4 84
2020-01-11 21:00:00 6.9 4 Sur 9 Sudoeste 0 1019.6 1.5 77
2020-01-11 20:00:00 8.3 3 Norte 9 Nordeste 0 1019.3 1.4 74
2020-01-11 19:00:00 11.5 7 Norte 9 Norte 0 1018.6 0.7 61
2020-01-11 18:00:00 15.2 5 Este 17 Este 0 1018.1 0 45
2020-01-11 17:00:00 16.1 13 Este 18 Este 0 1017.9 -1 40
2020-01-11 16:00:00 16.2 11 Este 17 Este 0 1017.9 -2.1 39
2020-01-11 15:00:00 15.5 11 Este 24 Este 0 1018.1 -2.6 42
2020-01-11 14:00:00 14.3 15 Este 28 Este 0 1018.9 -1.8 45
2020-01-11 13:00:00 12.6 18 Este 26 Este 0 1020 -0.2 51
2020-01-11 12:00:00 11 13 Este 24 Este 0 1020.7 1.1 58
2020-01-11 11:00:00 8.5 18 Este 24 Este 0 1020.7 1.5 66
2020-01-11 10:00:00 6.6 12 Este 21 Este 0 1020.2 1.6 73
2020-01-11 09:00:00 3 3 Nordeste 13 Nordeste 0 1019.6 1.4 84
2020-01-11 08:00:00 2.9 10 Nordeste 13 Nordeste 0 1019.2 1.1 84
2020-01-11 07:00:00 2.4 4 Nordeste 9 Este 0 1018.6 0.3 87
2020-01-11 06:00:00 2.9 5 Nordeste 15 Este 0 1018.2 -0.2 83
2020-01-11 05:00:00 3.6 13 Este 21 Este 0 1018.1 -0.1 84
2020-01-11 04:00:00 2 8 Nordeste 9 Nordeste 0 1018.3 0.1 89
2020-01-11 03:00:00 2.7 4 Norte 8 Noroeste 0 1018.4 0.3 85
2020-01-11 02:00:00 4 6 Sur -- -- 0 1018.2 0.7 80
2020-01-11 01:00:00 4.3 6 Noroeste 9 Noroeste 0 1018.2 0.8 80
2020-01-11 00:00:00 6.2 2 Sur 17 Este 0 1018.1 1 70
2020-01-10 23:00:00 7.9 11 Este 17 Este 0 1017.5 0.8 62
2020-01-10 22:00:00 7.2 10 Este 15 Este 0 1017.4 1.5 68
2020-01-10 21:00:00 7.9 5 Este 11 Nordeste 0 1017.1 1.9 66
2020-01-10 20:00:00 9.2 6 Este 11 Sudeste 0 1016.7 2.5 60
2020-01-10 19:00:00 11.8 9 Nordeste 22 Nordeste 0 1015.9 1.9 50
2020-01-10 18:00:00 14.9 18 Nordeste 28 Nordeste 0 1015.2 0.8 37
2020-01-10 17:00:00 15.1 9 Nordeste 21 Este 0 1014.2 -1.4 54
2020-01-10 16:00:00 15.3 12 Este 21 Este 0 1014 -2 58
2020-01-10 15:00:00 15.3 16 Este 22 Este 0 1014.4 -2.6 59
2020-01-10 14:00:00 14.3 14 Este 21 Este 0 1015.6 -1.6 64
2020-01-10 13:00:00 12.8 9 Este 15 Este 0 1016 -0.7 72
2020-01-10 12:00:00 11 9 Este 13 Este 0 1017 1 78
2020-01-10 11:00:00 9.8 8 Este 13 Nordeste 0 1017.2 1.3 86
2020-01-10 10:00:00 7.7 2 Sudoeste 4 Sur 0 1016.7 0.7 94
2020-01-10 09:00:00 7.1 0 Calma 8 Oeste 0 1016 0.3 95
2020-01-10 08:00:00 6.9 4 Oeste 8 Oeste 0 1015.9 0.2 95
2020-01-10 07:00:00 6.8 3 Sudeste 9 Noroeste 0 1016 -0.1 96
2020-01-10 06:00:00 6.5 6 Oeste 9 Oeste 0 1015.7 -0.4 96
2020-01-10 05:00:00 6.5 3 Nordeste 8 Nordeste 0 1015.7 -0.3 96
2020-01-10 04:00:00 5.3 6 Norte 8 Nordeste 0 1016.1 -0.3 95
2020-01-10 03:00:00 4.8 5 Sudoeste 8 Sur 0 1016.1 -0.8 94
2020-01-10 02:00:00 5.4 2 Sur 5 Sur 0 1016 -0.9 93
2020-01-10 01:00:00 6 3 Sur 5 Sudoeste 0 1016.4 -0.3 93
2020-01-10 00:00:00 6.8 2 Sudeste 5 Norte 0 1016.9 0.5 93
2020-01-09 23:00:00 6.6 0 Calma -- -- 0 1016.9 0.7 92
2020-01-09 22:00:00 7 5 Sudoeste -- -- 0 1016.7 0.2 89
2020-01-09 21:00:00 8.4 7 Oeste 9 Oeste 0 1016.4 0.8 86
2020-01-09 20:00:00 9.5 7 Sudoeste 9 Oeste 0 1016.2 0.9 81
2020-01-09 19:00:00 11.3 6 Oeste 11 Oeste 0 1016.5 0.6 75
2020-01-09 18:00:00 14.2 9 Sudoeste 18 Oeste 0 1015.6 -0.5 65
2020-01-09 17:00:00 15.5 14 Sudoeste 22 Sudoeste 0 1015.3 -1.4 59
2020-01-09 16:00:00 15.6 15 Sudoeste 22 Sudoeste 0 1015.9 -1.9 59
2020-01-09 15:00:00 14.7 10 Sudoeste 15 Sudoeste 0 1016.1 -2.7 61
2020-01-09 14:00:00 13.5 3 Oeste 9 Sudeste 0 1016.7 -2.3 64
2020-01-09 13:00:00 11.6 5 Este 9 Sudeste 0 1017.8 -0.5 67
2020-01-09 12:00:00 9.5 8 Este 13 Este 0 1018.8 1 75
2020-01-09 11:00:00 6.9 10 Este 13 Este 0 1019 1.5 85
2020-01-09 10:00:00 4.1 8 Este 11 Este 0 1018.3 1.1 94
2020-01-09 09:00:00 2.2 6 Este -- -- 0 1017.8 0.7 94
2020-01-09 08:00:00 1.5 4 Este 8 Este 0 1017.5 0.3 94
2020-01-09 07:00:00 1.8 4 Este 5 Este 0 1017.2 -0.4 94
2020-01-09 06:00:00 1.5 0 Calma 4 Sudoeste 0 1017.1 -0.6 94
2020-01-09 05:00:00 2.2 -- -- -- -- 0 1017.2 -0.3 94
2020-01-09 04:00:00 2.6 0 Calma 4 Sur 0 1017.6 0.1 93
2020-01-09 03:00:00 3 3 Norte 4 Norte 0 1017.7 0.2 93
2020-01-09 02:00:00 3.3 0 Calma 4 Nordeste 0 1017.5 0.2 93
2020-01-09 01:00:00 4 0 Calma 4 Noroeste 0 1017.5 0.6 92
2020-01-09 00:00:00 4.6 4 Oeste 5 Oeste 0 1017.5 0.8 91
2020-01-08 23:00:00 5.2 0 Calma -- -- 0 1017.3 0.9 89
2020-01-08 22:00:00 6.5 0 Calma 4 Sur 0 1016.9 0.8 88
2020-01-08 21:00:00 7.5 3 Nordeste 4 Nordeste 0 1016.7 0.8 84
2020-01-08 20:00:00 9.4 0 Calma 5 Este 0 1016.4 0.5 77
2020-01-08 19:00:00 12.2 4 Norte 8 Norte 0 1016.1 0.1 64
2020-01-08 18:00:00 17.6 0 Calma 4 Sur 0 1015.9 -0.4 40
2020-01-08 17:00:00 18.2 0 Calma 8 Nordeste 0 1015.9 -1.2 37
2020-01-08 16:00:00 17 4 Nordeste 11 Nordeste 0 1016 -2.2 41
2020-01-08 15:00:00 16 7 Nordeste 13 Este 0 1016.3 -2.9 41
2020-01-08 14:00:00 14.4 10 Este 17 Este 0 1017.1 -2.6 49
2020-01-08 13:00:00 12.3 12 Este 21 Este 0 1018.2 -1.3 58
2020-01-08 12:00:00 9.6 14 Este 21 Nordeste 0 1019.2 0.3 69
2020-01-08 11:00:00 7.4 12 Nordeste 18 Nordeste 0 1019.7 0.9 78
2020-01-08 10:00:00 4.5 2 Sur 8 Nordeste 0 1019.5 0.8 90
2020-01-08 09:00:00 2.9 4 Nordeste 9 Nordeste 0 1018.9 0.3 95
2020-01-08 08:00:00 2.8 5 Nordeste 8 Nordeste 0 1018.8 0.1 96
2020-01-08 07:00:00 2.2 6 Este 9 Este 0 1018.7 -0.2 96
2020-01-08 06:00:00 1.8 4 Este 5 Nordeste 0 1018.6 -0.1 95
2020-01-08 05:00:00 1.5 0 Calma 2 Noroeste 0 1018.7 0 95
2020-01-08 04:00:00 2.1 0 Calma 5 Nordeste 0 1018.9 -0.1 94
2020-01-08 03:00:00 2.3 3 Nordeste 5 Nordeste 0 1018.7 -0.6 94
2020-01-08 02:00:00 2.8 3 Sur 4 Sur 0 1018.7 -0.6 94
2020-01-08 01:00:00 3.6 4 Este -- -- 0 1019 -0.3 93
2020-01-08 00:00:00 4.1 -- -- -- -- 0 1019.3 0.2 92
2020-01-07 23:00:00 5.2 3 Sudoeste 4 Sudoeste 0 1019.3 0.4 90
2020-01-07 22:00:00 6.4 -- -- -- -- 0 1019.3 0.5 87
2020-01-07 21:00:00 7.7 7 Nordeste 9 Nordeste 0 1019.1 0.7 83
2020-01-07 20:00:00 8.9 0 Calma 8 Nordeste 0 1018.9 0.7 80
2020-01-07 19:00:00 11.6 5 Nordeste 5 Este 0 1018.8 0.4 66
2020-01-07 18:00:00 15.8 3 Nordeste 9 Nordeste 0 1018.4 -0.3 49
2020-01-07 17:00:00 16.7 8 Nordeste 15 Nordeste 0 1018.2 -1.2 46
2020-01-07 16:00:00 16.4 10 Este 17 Este 0 1018.4 -2.1 46
2020-01-07 15:00:00 15.4 13 Este 17 Este 0 1018.7 -2.6 56
2020-01-07 14:00:00 13.7 11 Este 21 Este 0 1019.4 -2.5 59
2020-01-07 13:00:00 11.8 14 Este 22 Este 0 1020.5 -0.8 65
2020-01-07 12:00:00 9.8 14 Nordeste 21 Nordeste 0 1021.3 0.5 73
2020-01-07 11:00:00 7.4 15 Este 22 Nordeste 0 1021.9 1.3 82
2020-01-07 10:00:00 5.3 8 Este -- -- 0 1021.3 1.2 93
2020-01-07 09:00:00 3.1 6 Nordeste 8 Nordeste 0 1020.8 0.4 95
2020-01-07 08:00:00 2.7 4 Sudeste 8 Norte 0 1020.6 0.2 95
2020-01-07 07:00:00 2.8 9 Nordeste 13 Nordeste 0 1020.1 0 95
2020-01-07 06:00:00 3.7 6 Este 13 Este 0 1020.4 0.5 95
2020-01-07 05:00:00 4 9 Este 17 Este 0 1020.4 0.5 96
2020-01-07 04:00:00 3.8 10 Nordeste 13 Este 0 1020.1 0.2 96
2020-01-07 03:00:00 3.4 9 Este 11 Este 0 1019.9 0 95
2020-01-07 02:00:00 3.5 4 Norte -- -- 0 1019.9 0.1 95
2020-01-07 01:00:00 4 0 Calma 5 Nordeste 0 1019.9 0.6 95
2020-01-07 00:00:00 4.4 3 Sudeste 5 Norte 0 1019.9 1.2 94
2020-01-06 23:00:00 5.5 2 Sur 4 Sudoeste 0 1019.8 1.4 93
2020-01-06 22:00:00 6.1 4 Sur -- -- 0 1019.3 1.7 91
2020-01-06 21:00:00 7.4 3 Noroeste 4 Noroeste 0 1018.7 1.3 90
2020-01-06 20:00:00 8.7 0 Calma -- -- 0 1018.4 1.3 83
2020-01-06 19:00:00 10.7 5 Nordeste -- -- 0 1017.6 0.6 77
2020-01-06 18:00:00 14.4 3 Norte -- -- 0 1017.4 0 60
2020-01-06 17:00:00 16 0 Calma 5 Norte 0 1017.1 -1.2 56
2020-01-06 16:00:00 15 3 Sudeste 5 Este 0 1017 -2.3 61
2020-01-06 15:00:00 13.8 3 Este 9 Sur 0 1017.4 -2.8 65
2020-01-06 14:00:00 13.3 2 Este 9 Sudeste 0 1018.3 -1.8 64
2020-01-06 13:00:00 11 5 Este 11 Este 0 1019.3 -0.3 70
2020-01-06 12:00:00 8.6 4 Sudeste 13 Este 0 1020.2 1 79
2020-01-06 11:00:00 6.1 9 Este 11 Este 0 1020.1 1.6 88
2020-01-06 10:00:00 2.9 0 Calma 4 Nordeste 0 1019.6 1.7 95